ADDS METAR Data INFO
IDs: Format: Raw Decoded Include TAF

Data at: 1349 UTC 23 Jun 2018

K20V 231330Z AUTO 00000KT 10SM CLR 10/02 A3018 RMK AO2
K20V 231312Z AUTO 00000KT 10SM CLR 09/01 A3018 RMK AO2
K20V 231254Z AUTO 00000KT 10SM CLR 08/01 A3018 RMK AO2
K20V 231230Z AUTO 00000KT 10SM CLR 07/01 A3017 RMK AO2
K20V 231212Z AUTO 00000KT 10SM CLR 06/00 A3017 RMK AO2
K20V 231154Z AUTO 00000KT 10SM CLR 05/00 A3017 RMK AO2
K20V 231130Z AUTO 00000KT 10SM CLR 06/00 A3017 RMK AO2
K20V 231112Z AUTO 00000KT 10SM CLR 06/01 A3017 RMK AO2
K20V 231054Z AUTO 00000KT 10SM CLR 06/01 A3017 RMK AO2
K20V 231030Z AUTO 12003KT 10SM CLR 06/01 A3017 RMK AO2
K20V 231012Z AUTO 00000KT 10SM CLR 07/01 A3017 RMK AO2
K20V 230954Z AUTO 00000KT 10SM CLR 07/01 A3017 RMK AO2
K20V 230930Z AUTO 00000KT 10SM CLR 07/01 A3017 RMK AO2
K20V 230912Z AUTO 00000KT 10SM CLR 07/00 A3017 RMK AO2
K20V 230854Z AUTO 00000KT 10SM CLR 07/00 A3017 RMK AO2
K20V 230830Z AUTO 00000KT 10SM CLR 08/01 A3017 RMK AO2
K20V 230812Z AUTO 00000KT 10SM CLR 09/02 A3017 RMK AO2
K20V 230753Z AUTO 00000KT 10SM CLR 10/01 A3017 RMK AO2
K20V 230735Z AUTO 00000KT 10SM CLR 11/01 A3018 RMK AO2
K20V 230712Z AUTO 00000KT 10SM CLR 12/00 A3017 RMK AO2
K20V 230653Z AUTO 00000KT 10SM CLR 12/00 A3018 RMK AO2
K20V 230630Z AUTO 00000KT 10SM CLR 12/00 A3018 RMK AO2
K20V 230612Z AUTO 00000KT 10SM CLR 12/01 A3018 RMK AO2
K20V 230554Z AUTO 00000KT 10SM CLR 13/01 A3018 RMK AO2
K20V 230530Z AUTO 24004KT 10SM CLR 16/M01 A3017 RMK AO2
K20V 230512Z AUTO 26006KT 10SM CLR 17/M02 A3017 RMK AO2
K20V 230453Z AUTO 19003KT 10SM CLR 17/M02 A3017 RMK AO2
K20V 230435Z AUTO 00000KT 10SM CLR 17/M02 A3017 RMK AO2
K20V 230411Z AUTO 24004KT 10SM CLR 17/M01 A3017 RMK AO2
K20V 230354Z AUTO 00000KT 10SM CLR 17/00 A3016 RMK AO2
K20V 230330Z AUTO 00000KT 10SM CLR 20/M03 A3015 RMK AO2
K20V 230312Z AUTO 33009KT 10SM CLR 22/M03 A3014 RMK AO2
K20V 230254Z AUTO 34009KT 10SM CLR 22/M03 A3013 RMK AO2
K20V 230230Z AUTO 32010G15KT 10SM CLR 23/M03 A3012 RMK AO2
K20V 230212Z AUTO 32013G16KT 10SM CLR 23/M05 A3012 RMK AO2
K20V 230154Z AUTO 33014G19KT 10SM CLR 23/M06 A3012 RMK AO2
K20V 230130Z AUTO 32016G22KT 10SM CLR 25/M06 A3010 RMK AO2
K20V 230112Z AUTO 32015G20KT 10SM CLR 26/M06 A3010 RMK AO2
K20V 230054Z AUTO 31011G17KT 10SM CLR 26/M04 A3009 RMK AO2
K20V 230030Z AUTO 32013G21KT 10SM CLR 26/M07 A3009 RMK AO2
K20V 230012Z AUTO 31011G22KT 10SM CLR 26/M05 A3008 RMK AO2
K20V 222354Z AUTO 32015G21KT 10SM CLR 27/M05 A3007 RMK AO2
K20V 222330Z AUTO 31011G19KT 10SM CLR 26/M06 A3008 RMK AO2 LTG DSNT N
K20V 222312Z AUTO 32015G30KT 274V014 10SM CLR 27/M05 A3008 RMK AO2
K20V 222254Z AUTO 32014G20KT 10SM CLR 27/M05 A3008 RMK AO2
K20V 222230Z AUTO 33014G21KT 10SM CLR 27/M05 A3008 RMK AO2
K20V 222212Z AUTO 32016KT 10SM CLR 27/M06 A3008 RMK AO2
K20V 222154Z AUTO 33014G21KT 10SM CLR 27/M05 A3009 RMK AO2
K20V 222130Z AUTO 31015G21KT 10SM CLR 27/M05 A3009 RMK AO2
K20V 222112Z AUTO 30010G20KT 10SM CLR 27/M04 A3009 RMK AO2
K20V 222054Z AUTO 31015G23KT 10SM CLR 27/M06 A3010 RMK AO2
K20V 222030Z AUTO 32018G26KT 10SM CLR 27/M04 A3009 RMK AO2
K20V 222012Z AUTO 30013G23KT 10SM CLR 27/M03 A3010 RMK AO2 LTG DSNT S
K20V 221954Z AUTO 31013G20KT 10SM CLR 27/M01 A3010 RMK AO2
K20V 221930Z AUTO 32013G21KT 294V004 10SM CLR 27/00 A3010 RMK AO2
K20V 221912Z AUTO 32012G18KT 10SM CLR 27/00 A3011 RMK AO2
K20V 221854Z AUTO 29012G22KT 10SM SCT100 27/M01 A3011 RMK AO2
K20V 221830Z AUTO 22012G17KT 10SM SCT100 SCT120 27/M02 A3011 RMK AO2 LTG DSNT E
K20V 221812Z AUTO 25012G20KT 10SM CLR 27/M03 A3012 RMK AO2
K20V 221754Z AUTO 25016G21KT 10SM CLR 27/M01 A3013 RMK AO2
K20V 221730Z AUTO 25008G17KT 10SM CLR 26/M01 A3014 RMK AO2 LTG DSNT E
K20V 221712Z AUTO 26011KT 10SM CLR 25/00 A3014 RMK AO2
K20V 221654Z AUTO 20005KT 10SM CLR 23/02 A3016 RMK AO2
K20V 221630Z AUTO 21007KT 10SM CLR 23/03 A3017 RMK AO2
K20V 221612Z AUTO 19008KT 10SM CLR 23/04 A3019 RMK AO2
K20V 221554Z AUTO 20012KT 10SM CLR 20/04 A3019 RMK AO2 LTG DSNT SE
K20V 221530Z AUTO 27003G21KT 10SM SCT085 BKN110 18/02 A3018 RMK AO2 LTG DSNT E
K20V 221512Z AUTO 19011G22KT 10SM SCT080 SCT090 BKN120 17/05 A3020 RMK AO2
K20V 221452Z AUTO 21011KT 10SM SCT065 SCT100 BKN120 17/05 A3022 RMK AO2
K20V 221434Z AUTO 20013KT 10SM BKN120 17/05 A3022 RMK AO2
K20V 221411Z AUTO 35003KT 10SM SCT075 SCT090 16/05 A3022 RMK AO2
K20V 221354Z AUTO 17006KT 10SM SCT075 OVC090 15/05 A3022 RMK AO2
K20V 221330Z AUTO 32004KT 10SM BKN120 15/05 A3021 RMK AO2
K20V 221312Z AUTO 34004KT 10SM SCT120 15/06 A3018 RMK AO2
K20V 221254Z AUTO 31004KT 10SM -RA SCT065 SCT090 BKN120 14/06 A3018 RMK AO2
K20V 221230Z AUTO 00000KT 10SM SCT070 BKN120 15/04 A3020 RMK AO2
K20V 221212Z AUTO 07005KT 10SM SCT120 13/04 A3019 RMK AO2
K20V 221153Z AUTO 22006KT 10SM SCT065 SCT095 BKN120 14/05 A3021 RMK AO2
K20V 221135Z AUTO 34005KT 10SM -RA SCT065 SCT080 BKN100 13/04 A3022 RMK AO2
K20V 221112Z AUTO 00000KT 10SM SCT110 13/05 A3022 RMK AO2
K20V 221054Z AUTO 00000KT 10SM SCT110 13/03 A3021 RMK AO2
K20V 221030Z AUTO 00000KT 10SM CLR 15/05 A3019 RMK AO2
K20V 221012Z AUTO 00000KT 10SM CLR 15/03 A3019 RMK AO2
K20V 220954Z AUTO 26003KT 10SM CLR 15/04 A3019 RMK AO2
K20V 220930Z AUTO 26005KT 10SM CLR 16/01 A3020 RMK AO2
K20V 220912Z AUTO 00000KT 10SM SCT065 SCT095 16/02 A3019 RMK AO2
K20V 220854Z AUTO 15007KT 10SM -RA SCT049 SCT065 BKN120 16/04 A3021 RMK AO2
K20V 220830Z AUTO 00000KT 10SM SCT120 16/03 A3020 RMK AO2
K20V 220812Z AUTO 36006KT 10SM CLR 15/02 A3019 RMK AO2
K20V 220754Z AUTO 00000KT 10SM CLR 15/03 A3019 RMK AO2
K20V 220730Z AUTO 00000KT 10SM CLR 17/01 A3019 RMK AO2
K20V 220712Z AUTO 20003KT 10SM CLR 16/01 A3019 RMK AO2
K20V 220653Z AUTO 36003KT 10SM CLR 16/01 A3019 RMK AO2
K20V 220630Z AUTO 22004KT 10SM CLR 17/01 A3020 RMK AO2
K20V 220612Z AUTO 10003KT 10SM CLR 17/02 A3019 RMK AO2
K20V 220554Z AUTO 33004KT 10SM SCT120 17/01 A3020 RMK AO2
K20V 220530Z AUTO 24004KT 10SM CLR 18/00 A3021 RMK AO2
K20V 220512Z AUTO 00000KT 10SM CLR 19/00 A3020 RMK AO2
K20V 220454Z AUTO 00000KT 10SM SCT110 20/00 A3020 RMK AO2
K20V 220430Z AUTO 34007KT 10SM SCT120 22/00 A3021 RMK AO2
K20V 220412Z AUTO 00000KT 10SM CLR 23/M01 A3022 RMK AO2
K20V 220354Z AUTO 00000KT 10SM CLR 23/M03 A3021 RMK AO2
K20V 220330Z AUTO 32008KT 10SM CLR 25/M05 A3019 RMK AO2
K20V 220312Z AUTO 28003KT 10SM CLR 23/M03 A3019 RMK AO2
K20V 220254Z AUTO 20004KT 10SM CLR 25/M06 A3018 RMK AO2
K20V 220230Z AUTO 28005KT 10SM CLR 26/M07 A3017 RMK AO2
K20V 220212Z AUTO 31006G20KT 10SM CLR 27/M08 A3017 RMK AO2
K20V 220154Z AUTO 28014G21KT 10SM CLR 27/M07 A3018 RMK AO2